Time;durP1;ratioP1;P1;durP2;ratioP2;P2;SDS_P1;SDS_P2;PMS_P1;PMS_P2;Temp;Humidity;BMP_temperature;BMP_pressure;BME280_temperature;BME280_humidity;BME280_pressure;Samples;Min_cycle;Max_cycle;Signal;HPM_P1;HPM_P2
2021/08/27 00:02:36;;;;;;;5.68;3.40;;;23.40;51.70;;;;;;6163008;28;80786;-64
2021/08/27 00:05:36;;;;;;;4.55;3.20;;;23.40;51.80;;;;;;6173750;28;80905;-64
2021/08/27 00:08:37;;;;;;;4.55;3.35;;;23.40;51.70;;;;;;6163748;28;80649;-64
2021/08/27 00:11:37;;;;;;;6.95;3.90;;;23.40;51.70;;;;;;6165522;28;80991;-64
2021/08/27 00:14:38;;;;;;;6.53;4.38;;;23.30;51.70;;;;;;6176028;28;80681;-63
2021/08/27 00:17:38;;;;;;;5.53;3.80;;;23.30;51.70;;;;;;6175352;28;80448;-63
2021/08/27 00:20:39;;;;;;;6.18;3.33;;;23.30;51.70;;;;;;6155412;28;81877;-64
2021/08/27 00:23:39;;;;;;;5.10;3.33;;;23.30;51.60;;;;;;6175616;28;80464;-64
2021/08/27 00:26:40;;;;;;;5.38;3.65;;;23.40;51.70;;;;;;6167152;28;81535;-64
2021/08/27 00:29:40;;;;;;;4.55;3.28;;;23.30;51.70;;;;;;6174437;28;80644;-64
2021/08/27 00:32:41;;;;;;;5.40;4.03;;;23.30;51.70;;;;;;6156046;28;82585;-64
2021/08/27 00:35:41;;;;;;;5.78;3.58;;;23.30;52.40;;;;;;6159879;28;80478;-64
2021/08/27 00:38:42;;;;;;;7.28;3.83;;;23.30;51.70;;;;;;6169645;28;80372;-64
2021/08/27 00:41:42;;;;;;;5.25;3.35;;;23.30;51.60;;;;;;6164816;28;80703;-63
2021/08/27 00:44:43;;;;;;;6.05;3.72;;;23.30;51.70;;;;;;6173083;28;81512;-63
2021/08/27 00:47:43;;;;;;;5.18;3.50;;;23.30;51.70;;;;;;6162240;28;80598;-64
2021/08/27 00:50:44;;;;;;;5.38;3.58;;;23.30;51.90;;;;;;6156049;28;80149;-63
2021/08/27 00:53:44;;;;;;;6.07;3.53;;;23.30;51.80;;;;;;6173791;28;80659;-64
2021/08/27 00:56:45;;;;;;;4.53;3.30;;;23.30;51.70;;;;;;6171721;28;81026;-63
2021/08/27 00:59:45;;;;;;;5.97;3.42;;;23.30;51.70;;;;;;6165558;28;81291;-63
2021/08/27 01:02:46;;;;;;;9.10;3.42;;;23.30;51.70;;;;;;6158549;28;80452;-65
2021/08/27 01:05:46;;;;;;;5.10;3.50;;;23.30;51.70;;;;;;6147804;28;81866;-64
2021/08/27 01:08:47;;;;;;;6.18;3.80;;;23.30;52.10;;;;;;6171882;28;81690;-64
2021/08/27 01:11:47;;;;;;;4.53;3.00;;;23.30;51.70;;;;;;6172037;28;81661;-64
2021/08/27 01:14:47;;;;;;;5.68;3.83;;;23.30;51.80;;;;;;6165551;28;81421;-64
2021/08/27 01:17:48;;;;;;;5.70;3.70;;;23.30;51.90;;;;;;6169673;28;80575;-64
2021/08/27 01:20:48;;;;;;;5.05;3.25;;;23.30;51.80;;;;;;6160404;28;81873;-64
2021/08/27 01:23:49;;;;;;;6.70;3.80;;;23.30;51.90;;;;;;6169877;28;81803;-64
2021/08/27 01:26:49;;;;;;;5.63;3.78;;;23.30;51.90;;;;;;6160688;28;80455;-64
2021/08/27 01:29:50;;;;;;;5.72;3.33;;;23.30;51.90;;;;;;6161008;28;80583;-64
2021/08/27 01:32:50;;;;;;;5.30;3.00;;;23.30;51.80;;;;;;6163689;28;80466;-64
2021/08/27 01:35:51;;;;;;;5.82;3.53;;;23.30;51.80;;;;;;6168155;28;80464;-64
2021/08/27 01:38:51;;;;;;;5.32;3.63;;;23.30;51.90;;;;;;6168485;28;81195;-64
2021/08/27 01:41:52;;;;;;;4.90;3.22;;;23.30;51.90;;;;;;6166586;28;80307;-64
2021/08/27 01:44:52;;;;;;;4.93;3.42;;;23.30;51.80;;;;;;6167209;28;80823;-64
2021/08/27 01:47:53;;;;;;;5.82;3.85;;;23.30;51.80;;;;;;6170110;28;80964;-64
2021/08/27 01:50:54;;;;;;;7.78;3.90;;;23.30;51.70;;;;;;6163597;28;81259;-64
2021/08/27 01:53:55;;;;;;;4.15;3.35;;;23.30;51.90;;;;;;6174959;28;80236;-63
2021/08/27 01:56:55;;;;;;;5.22;3.40;;;23.30;51.90;;;;;;6157731;28;80710;-64
2021/08/27 01:59:56;;;;;;;5.72;3.67;;;23.30;51.90;;;;;;6156404;28;80915;-64
2021/08/27 02:02:57;;;;;;;6.13;2.88;;;23.30;51.80;;;;;;6149840;28;80411;-64
2021/08/27 02:05:57;;;;;;;4.80;3.65;;;23.30;51.90;;;;;;6177106;28;81706;-64
2021/08/27 02:08:58;;;;;;;7.15;3.47;;;23.30;51.70;;;;;;6170187;28;80989;-64
2021/08/27 02:11:58;;;;;;;4.65;3.05;;;23.30;51.90;;;;;;6164809;28;80270;-64
2021/08/27 02:14:58;;;;;;;6.13;3.20;;;23.30;51.80;;;;;;6158861;28;82040;-64
2021/08/27 02:17:59;;;;;;;6.10;3.90;;;23.30;52.00;;;;;;6170492;28;80485;-64
2021/08/27 02:20:59;;;;;;;4.75;3.40;;;23.30;51.90;;;;;;6170823;28;81298;-64
2021/08/27 02:24:00;;;;;;;5.43;3.40;;;23.30;51.90;;;;;;6157249;28;82012;-64
2021/08/27 02:27:01;;;;;;;5.25;3.22;;;23.30;51.90;;;;;;6162853;28;80587;-64
2021/08/27 02:30:01;;;;;;;6.50;3.85;;;23.20;51.90;;;;;;6166502;28;80339;-67
2021/08/27 02:33:02;;;;;;;5.07;3.40;;;23.30;51.80;;;;;;6164302;28;81652;-64
2021/08/27 02:36:02;;;;;;;5.32;3.55;;;23.20;51.80;;;;;;6175600;28;80465;-64
2021/08/27 02:39:02;;;;;;;5.15;3.20;;;23.20;51.90;;;;;;6169992;28;81162;-64
2021/08/27 02:42:03;;;;;;;6.03;3.42;;;23.20;51.90;;;;;;6162643;28;80434;-64
2021/08/27 02:45:03;;;;;;;5.60;3.40;;;23.20;51.70;;;;;;6171211;28;81393;-64
2021/08/27 02:48:04;;;;;;;4.10;3.17;;;23.20;51.90;;;;;;6165945;28;80520;-64
2021/08/27 02:51:04;;;;;;;4.43;3.35;;;23.20;51.80;;;;;;6171943;28;80491;-64
2021/08/27 02:54:05;;;;;;;5.00;3.42;;;23.20;52.00;;;;;;6163795;28;80717;-64
2021/08/27 02:57:06;;;;;;;5.05;3.22;;;23.20;51.90;;;;;;6164456;28;80576;-64
2021/08/27 03:00:06;;;;;;;3.60;3.00;;;23.20;51.90;;;;;;6159706;28;81016;-64
2021/08/27 03:03:06;;;;;;;10.77;3.40;;;23.20;51.90;;;;;;6167747;28;80230;-64
2021/08/27 03:06:07;;;;;;;6.43;3.58;;;23.20;51.80;;;;;;6171469;28;81409;-64
2021/08/27 03:09:08;;;;;;;5.68;3.47;;;23.20;51.90;;;;;;6152485;28;82591;-64
2021/08/27 03:12:09;;;;;;;4.50;3.65;;;23.20;51.90;;;;;;6161910;28;80420;-64
2021/08/27 03:15:09;;;;;;;4.80;3.20;;;23.20;51.70;;;;;;6171122;28;80470;-64
2021/08/27 03:18:10;;;;;;;6.13;3.15;;;23.20;51.90;;;;;;6174562;28;80455;-64
2021/08/27 03:21:10;;;;;;;4.55;3.17;;;23.20;51.90;;;;;;6153452;28;80525;-64
2021/08/27 03:24:11;;;;;;;5.32;3.20;;;23.20;52.00;;;;;;6161300;28;81522;-64
2021/08/27 03:27:11;;;;;;;7.20;3.65;;;23.20;51.80;;;;;;6165340;28;80573;-64
2021/08/27 03:30:12;;;;;;;5.15;2.80;;;23.20;51.80;;;;;;6180222;28;80850;-64
2021/08/27 03:33:13;;;;;;;3.85;2.58;;;23.20;51.70;;;;;;6157325;28;80762;-65
2021/08/27 03:36:14;;;;;;;5.38;3.47;;;23.20;51.90;;;;;;6175927;28;81644;-65
2021/08/27 03:39:14;;;;;;;5.07;3.20;;;23.20;51.80;;;;;;6156547;28;80896;-66
2021/08/27 03:42:15;;;;;;;5.70;3.05;;;23.20;51.90;;;;;;6159738;28;80613;-64
2021/08/27 03:45:15;;;;;;;6.53;3.45;;;23.20;51.80;;;;;;6169056;28;81464;-65
2021/08/27 03:48:16;;;;;;;5.30;3.20;;;23.20;51.90;;;;;;6165525;28;80651;-66
2021/08/27 03:51:16;;;;;;;4.32;3.05;;;23.20;51.60;;;;;;6168375;28;80676;-66
2021/08/27 03:54:17;;;;;;;5.80;3.50;;;23.20;51.80;;;;;;6176721;28;80497;-63
2021/08/27 03:57:17;;;;;;;4.05;3.20;;;23.20;51.90;;;;;;6158895;28;80858;-65
2021/08/27 04:00:18;;;;;;;4.32;2.80;;;23.20;51.70;;;;;;6175343;28;80867;-64
2021/08/27 04:03:18;;;;;;;5.20;3.63;;;23.20;51.70;;;;;;6161896;28;81382;-66
2021/08/27 04:06:19;;;;;;;4.88;3.05;;;23.20;51.80;;;;;;6172743;28;82050;-66
2021/08/27 04:09:19;;;;;;;4.25;3.03;;;23.20;51.80;;;;;;6162672;28;86557;-65
2021/08/27 04:12:20;;;;;;;4.22;3.00;;;23.20;52.00;;;;;;6163500;28;80406;-65
2021/08/27 04:15:23;;;;;;;3.60;2.67;;;23.20;52.00;;;;;;6160761;28;80494;-67
2021/08/27 04:18:23;;;;;;;8.35;2.83;;;23.20;51.70;;;;;;6171810;28;80404;-67
2021/08/27 04:21:24;;;;;;;5.60;3.10;;;23.20;52.20;;;;;;6160004;28;81498;-66
2021/08/27 04:24:25;;;;;;;4.30;2.90;;;23.20;52.20;;;;;;6164611;28;80554;-65
2021/08/27 04:27:25;;;;;;;5.57;3.33;;;23.20;52.10;;;;;;6173394;28;81910;-63
2021/08/27 04:30:26;;;;;;;4.20;3.10;;;23.20;52.60;;;;;;6172031;28;80043;-65
2021/08/27 04:33:26;;;;;;;11.85;3.33;;;23.30;53.10;;;;;;6173028;28;80358;-66
2021/08/27 04:36:27;;;;;;;5.40;3.13;;;23.30;52.70;;;;;;6169658;28;80675;-65
2021/08/27 04:39:27;;;;;;;6.82;3.22;;;23.30;53.00;;;;;;6161820;28;80804;-65
2021/08/27 04:42:28;;;;;;;5.15;3.13;;;23.30;53.10;;;;;;6162811;28;80683;-65
2021/08/27 04:45:29;;;;;;;4.88;3.40;;;23.30;53.10;;;;;;6170947;28;80414;-66
2021/08/27 04:48:29;;;;;;;6.70;2.83;;;23.30;53.30;;;;;;6168513;28;81224;-65
2021/08/27 04:51:30;;;;;;;4.25;3.05;;;23.20;53.50;;;;;;6164268;28;83631;-65
2021/08/27 04:54:30;;;;;;;4.55;3.17;;;23.20;53.40;;;;;;6148149;28;80649;-64
2021/08/27 04:57:31;;;;;;;4.22;2.67;;;23.30;53.20;;;;;;6159878;28;80774;-65
2021/08/27 05:00:31;;;;;;;7.82;2.92;;;23.30;53.90;;;;;;6168945;28;83407;-66
2021/08/27 05:03:32;;;;;;;3.53;2.75;;;23.30;53.30;;;;;;6156073;28;80255;-65
2021/08/27 05:06:33;;;;;;;10.13;3.33;;;23.30;53.30;;;;;;6167361;28;80497;-65
2021/08/27 05:09:33;;;;;;;4.50;3.33;;;23.30;53.40;;;;;;6163597;28;80532;-65
2021/08/27 05:12:34;;;;;;;4.30;3.22;;;23.30;53.30;;;;;;6166189;28;80293;-65
2021/08/27 05:15:34;;;;;;;7.15;2.97;;;23.30;53.60;;;;;;6176631;28;80642;-64
2021/08/27 05:18:35;;;;;;;4.57;2.88;;;23.30;53.60;;;;;;6166066;28;81405;-65
2021/08/27 05:21:37;;;;;;;6.50;2.83;;;23.30;53.50;;;;;;6159546;28;81081;-65
2021/08/27 05:24:37;;;;;;;8.60;3.28;;;23.30;53.70;;;;;;6153233;28;83336;-69
2021/08/27 05:27:38;;;;;;;5.75;3.05;;;23.30;53.60;;;;;;6159173;28;80640;-65
2021/08/27 05:30:38;;;;;;;6.05;3.00;;;23.30;54.10;;;;;;6163781;28;80399;-65
2021/08/27 05:33:39;;;;;;;8.98;3.50;;;23.30;54.00;;;;;;6156661;28;80009;-65
2021/08/27 05:36:39;;;;;;;7.55;3.28;;;23.30;53.50;;;;;;6160085;28;88259;-67
2021/08/27 05:39:40;;;;;;;7.93;2.85;;;23.30;53.70;;;;;;6163482;28;80464;-66
2021/08/27 05:42:40;;;;;;;6.43;3.22;;;23.40;53.60;;;;;;6162902;28;80638;-66
2021/08/27 05:45:40;;;;;;;6.25;2.95;;;23.30;54.00;;;;;;6173462;28;80533;-66
2021/08/27 05:48:41;;;;;;;7.00;2.97;;;23.30;54.30;;;;;;6162050;28;80426;-66
2021/08/27 05:51:41;;;;;;;6.95;3.28;;;23.40;53.50;;;;;;6153923;28;81857;-66
2021/08/27 05:54:42;;;;;;;6.38;3.80;;;23.30;54.10;;;;;;6164894;28;81840;-67
2021/08/27 05:57:42;;;;;;;4.63;3.00;;;23.40;54.20;;;;;;6175682;28;80753;-66
2021/08/27 06:00:43;;;;;;;3.53;2.83;;;23.40;54.20;;;;;;6160994;28;81433;-66
2021/08/27 06:03:43;;;;;;;6.10;3.63;;;23.40;54.30;;;;;;6161695;28;80566;-66
2021/08/27 06:06:48;;;;;;;6.43;3.00;;;23.40;53.80;;;;;;6152151;28;81452;-65
2021/08/27 06:09:48;;;;;;;6.38;3.40;;;23.40;54.20;;;;;;6172663;28;81572;-65
2021/08/27 06:12:49;;;;;;;5.22;3.22;;;23.40;54.10;;;;;;6163487;28;80591;-64
2021/08/27 06:15:49;;;;;;;5.15;3.85;;;23.40;53.30;;;;;;6161405;28;82131;-65
2021/08/27 06:18:49;;;;;;;8.88;4.20;;;23.30;53.30;;;;;;6155580;28;81557;-64
2021/08/27 06:21:50;;;;;;;4.82;3.33;;;23.40;54.20;;;;;;6160921;28;80936;-64
2021/08/27 06:24:51;;;;;;;5.47;3.38;;;23.40;54.00;;;;;;6160831;28;80414;-64
2021/08/27 06:27:51;;;;;;;8.20;5.10;;;23.40;53.70;;;;;;6152096;28;80834;-64
2021/08/27 06:30:51;;;;;;;10.90;6.90;;;23.30;53.60;;;;;;6152726;28;80434;-64
2021/08/27 06:33:52;;;;;;;13.45;6.72;;;23.30;53.20;;;;;;6155654;28;81675;-64
2021/08/27 06:36:52;;;;;;;10.30;6.63;;;23.40;53.50;;;;;;6152906;28;80643;-64
2021/08/27 06:39:53;;;;;;;17.27;6.70;;;23.30;53.40;;;;;;6154274;28;80493;-64
2021/08/27 06:42:53;;;;;;;11.27;6.20;;;23.30;53.40;;;;;;6151949;28;80392;-65
2021/08/27 06:45:54;;;;;;;12.32;7.00;;;23.30;53.40;;;;;;6145515;28;81507;-65
2021/08/27 06:48:54;;;;;;;11.88;6.45;;;23.30;53.40;;;;;;6156181;28;80265;-65
2021/08/27 06:51:55;;;;;;;10.57;6.28;;;23.30;53.50;;;;;;6156897;28;80863;-65
2021/08/27 06:54:55;;;;;;;16.23;6.43;;;23.30;53.20;;;;;;6158477;28;80943;-66
2021/08/27 06:57:59;;;;;;;10.80;7.30;;;23.30;52.90;;;;;;6160763;28;80759;-68
2021/08/27 07:00:59;;;;;;;8.38;6.40;;;23.20;53.10;;;;;;6162404;28;80571;-65
2021/08/27 07:03:59;;;;;;;12.45;6.35;;;23.30;53.10;;;;;;6152524;28;80506;-67
2021/08/27 07:07:00;;;;;;;9.88;5.97;;;23.30;53.00;;;;;;6159016;28;80601;-67
2021/08/27 07:10:00;;;;;;;8.93;5.70;;;23.30;53.20;;;;;;6156519;28;80623;-66
2021/08/27 07:13:01;;;;;;;9.23;5.65;;;23.20;52.90;;;;;;6151345;28;81396;-68
2021/08/27 07:16:01;;;;;;;10.30;5.38;;;23.30;53.10;;;;;;6161642;28;80548;-68
2021/08/27 07:19:02;;;;;;;9.93;5.35;;;23.30;53.10;;;;;;6176648;28;81086;-68
2021/08/27 07:22:02;;;;;;;9.10;5.32;;;23.30;52.70;;;;;;6158208;28;81692;-66
2021/08/27 07:25:03;;;;;;;7.63;5.15;;;23.20;52.50;;;;;;6163026;28;80854;-68
2021/08/27 07:28:03;;;;;;;8.05;4.68;;;23.20;52.70;;;;;;6167896;28;80646;-66
2021/08/27 07:31:04;;;;;;;9.18;5.47;;;23.20;52.50;;;;;;6160571;28;81461;-66
2021/08/27 07:34:04;;;;;;;10.45;5.15;;;23.20;52.80;;;;;;6156641;28;87497;-68
2021/08/27 07:37:05;;;;;;;11.65;5.43;;;23.20;52.90;;;;;;6155221;28;80668;-68
2021/08/27 07:40:05;;;;;;;9.93;4.90;;;23.20;52.90;;;;;;6157851;28;80428;-66
2021/08/27 07:43:05;;;;;;;8.95;5.35;;;23.20;53.10;;;;;;6161416;28;80525;-66
2021/08/27 07:46:06;;;;;;;7.03;4.45;;;23.20;52.90;;;;;;6165406;28;80962;-67
2021/08/27 07:49:06;;;;;;;9.52;5.68;;;23.30;52.80;;;;;;6162615;28;80306;-67
2021/08/27 07:52:07;;;;;;;9.85;5.38;;;23.30;52.80;;;;;;6162601;28;80503;-67
2021/08/27 07:55:07;;;;;;;9.68;5.35;;;23.30;52.90;;;;;;6162548;28;80780;-67
2021/08/27 07:58:08;;;;;;;11.90;5.78;;;23.30;53.10;;;;;;6162422;28;81012;-67
2021/08/27 08:01:08;;;;;;;8.70;5.50;;;23.30;53.00;;;;;;6155901;28;80452;-66
2021/08/27 08:04:09;;;;;;;9.80;4.60;;;23.30;52.90;;;;;;6160342;28;80316;-67
2021/08/27 08:07:09;;;;;;;8.57;4.70;;;23.40;52.80;;;;;;6162409;28;80528;-67
2021/08/27 08:10:10;;;;;;;7.38;4.28;;;23.30;52.70;;;;;;6164429;28;80378;-67
2021/08/27 08:13:10;;;;;;;6.78;4.18;;;23.40;52.90;;;;;;6166844;28;81410;-67
2021/08/27 08:16:11;;;;;;;7.35;4.20;;;23.40;52.90;;;;;;6157950;28;82346;-67
2021/08/27 08:19:11;;;;;;;7.13;4.35;;;23.40;52.70;;;;;;6170212;28;81853;-67
2021/08/27 08:22:12;;;;;;;5.78;3.80;;;23.50;52.70;;;;;;6161406;28;80137;-67
2021/08/27 08:25:12;;;;;;;6.95;3.97;;;23.50;52.70;;;;;;6163438;28;82061;-68
2021/08/27 08:28:13;;;;;;;6.95;4.25;;;23.50;52.60;;;;;;6160554;28;81963;-67
2021/08/27 08:31:18;;;;;;;7.70;3.67;;;23.50;52.70;;;;;;6153492;28;80728;-68
2021/08/27 08:34:18;;;;;;;5.47;3.80;;;23.50;52.60;;;;;;6165189;28;81113;-67
2021/08/27 08:37:19;;;;;;;6.30;4.03;;;23.50;52.60;;;;;;6158452;28;80676;-67
2021/08/27 08:40:19;;;;;;;4.53;3.30;;;23.50;52.50;;;;;;6157193;28;81469;-68
2021/08/27 08:43:20;;;;;;;7.55;3.40;;;23.50;52.50;;;;;;6159443;28;80399;-67
2021/08/27 08:46:21;;;;;;;6.35;3.40;;;23.60;52.60;;;;;;6157153;28;83159;-67
2021/08/27 08:49:21;;;;;;;4.85;3.00;;;23.60;52.50;;;;;;6161812;28;81610;-68
2021/08/27 08:52:22;;;;;;;5.28;3.05;;;23.60;52.40;;;;;;6190911;28;81742;-67
2021/08/27 08:55:22;;;;;;;7.60;3.80;;;23.60;52.40;;;;;;6159437;28;81065;-67
2021/08/27 08:58:23;;;;;;;7.70;3.22;;;23.60;52.50;;;;;;6152996;28;80567;-68
2021/08/27 09:01:23;;;;;;;5.07;3.03;;;23.60;52.50;;;;;;6158374;28;80474;-66
2021/08/27 09:04:26;;;;;;;6.20;3.35;;;23.50;52.30;;;;;;6169401;28;80247;-66
2021/08/27 09:07:27;;;;;;;5.13;3.42;;;23.60;52.50;;;;;;6168965;28;80424;-66
2021/08/27 09:10:27;;;;;;;4.78;3.08;;;23.50;52.50;;;;;;6174491;28;81519;-67
2021/08/27 09:13:28;;;;;;;3.95;2.80;;;23.50;52.50;;;;;;6157206;28;84231;-66
2021/08/27 09:16:28;;;;;;;3.63;3.15;;;23.60;52.50;;;;;;6171602;28;80445;-67
2021/08/27 09:19:29;;;;;;;4.35;3.03;;;23.50;52.40;;;;;;6203583;28;80254;-66
2021/08/27 09:22:29;;;;;;;6.20;3.42;;;23.50;52.40;;;;;;6163968;28;80526;-67
2021/08/27 09:25:31;;;;;;;6.50;3.38;;;23.50;52.30;;;;;;6163529;28;80462;-67
2021/08/27 09:28:31;;;;;;;4.15;3.10;;;23.50;52.30;;;;;;6156543;28;80565;-67
2021/08/27 09:31:32;;;;;;;7.35;3.50;;;23.50;52.30;;;;;;6167604;28;81413;-67
2021/08/27 09:34:32;;;;;;;5.30;3.55;;;23.50;52.50;;;;;;6173697;28;81226;-66
2021/08/27 09:37:34;;;;;;;7.07;3.33;;;23.50;52.80;;;;;;6162978;28;80514;-66
2021/08/27 09:40:35;;;;;;;4.20;3.10;;;23.40;53.50;;;;;;6168063;28;80631;-67
2021/08/27 09:43:35;;;;;;;8.35;3.80;;;23.50;53.40;;;;;;6161500;28;81681;-67
2021/08/27 09:46:36;;;;;;;9.73;5.00;;;23.40;53.60;;;;;;6160118;28;80917;-67
2021/08/27 09:49:37;;;;;;;22.83;8.00;;;23.50;54.90;;;;;;6159309;28;82110;-67
2021/08/27 09:52:37;;;;;;;35.60;11.52;;;23.50;60.50;;;;;;6161908;28;80851;-67
2021/08/27 09:55:38;;;;;;;36.53;11.52;;;23.50;60.30;;;;;;6158928;28;83858;-67
2021/08/27 09:58:39;;;;;;;34.90;10.43;;;23.50;60.20;;;;;;6170023;28;83735;-68
2021/08/27 10:01:39;;;;;;;27.75;9.80;;;23.50;59.20;;;;;;6170678;28;83812;-67
2021/08/27 10:04:40;;;;;;;26.38;8.82;;;23.50;58.00;;;;;;6171454;28;82907;-67
2021/08/27 10:07:41;;;;;;;30.45;8.75;;;23.50;58.00;;;;;;6171650;28;80650;-68
2021/08/27 10:10:41;;;;;;;23.85;7.63;;;23.50;56.30;;;;;;6152680;28;81382;-68
2021/08/27 10:13:42;;;;;;;17.27;7.28;;;23.50;56.10;;;;;;6167666;28;82709;-68
2021/08/27 10:16:43;;;;;;;16.85;6.63;;;23.50;54.80;;;;;;6171973;28;80592;-68
2021/08/27 10:19:43;;;;;;;16.23;6.28;;;23.40;54.20;;;;;;6154802;28;81463;-67
2021/08/27 10:22:44;;;;;;;15.95;7.00;;;23.50;54.20;;;;;;6160384;28;80183;-68
2021/08/27 10:25:44;;;;;;;19.48;10.88;;;23.40;54.10;;;;;;6148440;28;80731;-70
2021/08/27 10:28:45;;;;;;;17.20;7.82;;;23.40;53.70;;;;;;6175686;28;83518;-69
2021/08/27 10:31:45;;;;;;;13.88;6.70;;;23.40;53.60;;;;;;6161654;28;83113;-68
2021/08/27 10:34:46;;;;;;;15.27;7.15;;;23.40;53.50;;;;;;6166741;28;82011;-68
2021/08/27 10:37:49;;;;;;;14.77;6.65;;;23.40;53.70;;;;;;6177057;28;83736;-68
2021/08/27 10:40:50;;;;;;;16.98;7.40;;;23.40;53.60;;;;;;6179206;28;80201;-67
2021/08/27 10:43:50;;;;;;;12.05;6.32;;;23.40;53.40;;;;;;6165852;28;82117;-67
2021/08/27 10:46:52;;;;;;;11.10;5.93;;;23.40;53.20;;;;;;6159573;28;81566;-69
2021/08/27 10:49:52;;;;;;;8.88;5.30;;;23.40;53.10;;;;;;6160295;28;81737;-69
2021/08/27 10:52:53;;;;;;;7.45;4.35;;;23.40;52.90;;;;;;6174549;28;82089;-66
2021/08/27 10:55:53;;;;;;;9.52;4.40;;;23.30;51.90;;;;;;6164733;28;81686;-65
2021/08/27 10:58:55;;;;;;;11.88;5.30;;;23.30;51.80;;;;;;6172381;28;82741;-65
2021/08/27 11:01:55;;;;;;;7.07;4.50;;;23.30;51.80;;;;;;6163928;28;82677;-63
2021/08/27 11:04:56;;;;;;;7.00;4.03;;;23.30;51.60;;;;;;6156861;28;82176;-65
2021/08/27 11:07:56;;;;;;;9.18;4.40;;;23.40;51.80;;;;;;6177765;28;81767;-66
2021/08/27 11:10:57;;;;;;;6.18;3.60;;;23.40;51.80;;;;;;6162109;28;80555;-65
2021/08/27 11:13:57;;;;;;;5.93;3.78;;;23.40;51.10;;;;;;6160950;28;80641;-66
2021/08/27 11:16:58;;;;;;;6.13;3.15;;;23.30;50.70;;;;;;6160688;28;81106;-65
2021/08/27 11:19:58;;;;;;;5.93;3.58;;;23.30;50.30;;;;;;6172321;28;81494;-65
2021/08/27 11:22:59;;;;;;;7.07;4.20;;;23.30;50.80;;;;;;6168104;28;80460;-67
2021/08/27 11:25:59;;;;;;;7.03;3.47;;;23.30;51.10;;;;;;6167041;28;80448;-66
2021/08/27 11:29:00;;;;;;;7.30;3.60;;;23.40;52.30;;;;;;6167064;28;80705;-66
2021/08/27 11:32:00;;;;;;;5.50;4.03;;;23.40;51.90;;;;;;6165756;28;80258;-66
2021/08/27 11:35:01;;;;;;;6.70;4.10;;;23.40;51.80;;;;;;6162993;28;81742;-66
2021/08/27 11:38:05;;;;;;;9.20;5.25;;;23.40;51.90;;;;;;6177515;28;80443;-67
2021/08/27 11:41:05;;;;;;;8.57;5.20;;;23.40;51.90;;;;;;6168796;28;80421;-66
2021/08/27 11:44:06;;;;;;;13.77;8.10;;;23.40;51.90;;;;;;6171457;28;80444;-66
2021/08/27 11:47:06;;;;;;;14.63;6.95;;;23.40;52.10;;;;;;6175490;28;81572;-66
2021/08/27 11:50:07;;;;;;;13.07;6.57;;;23.40;51.80;;;;;;6176375;28;80435;-67
2021/08/27 11:53:07;;;;;;;27.83;13.60;;;23.40;51.80;;;;;;6172586;28;81829;-67
2021/08/27 11:56:08;;;;;;;33.72;17.48;;;23.40;51.90;;;;;;6157736;28;83153;-67
2021/08/27 11:59:08;;;;;;;31.42;15.65;;;23.40;51.80;;;;;;6150149;28;84021;-66
2021/08/27 12:02:09;;;;;;;36.75;17.42;;;23.40;51.90;;;;;;6151089;28;83985;-67
2021/08/27 12:05:12;;;;;;;25.50;14.23;;;23.40;51.90;;;;;;6162153;28;83390;-67
2021/08/27 12:08:16;;;;;;;23.05;12.13;;;23.40;51.80;;;;;;6153545;28;83807;-67
2021/08/27 12:11:16;;;;;;;21.83;10.77;;;23.40;51.90;;;;;;6171462;28;83368;-66
2021/08/27 12:14:17;;;;;;;21.90;10.88;;;23.40;52.20;;;;;;6171995;28;83351;-66
2021/08/27 12:17:18;;;;;;;16.48;8.95;;;23.40;52.10;;;;;;6166370;28;83972;-67
2021/08/27 12:20:18;;;;;;;20.38;10.05;;;23.40;52.00;;;;;;6159521;28;83136;-68
2021/08/27 12:23:19;;;;;;;15.50;8.30;;;23.30;52.10;;;;;;6158976;28;83087;-68
2021/08/27 12:26:22;;;;;;;19.48;9.35;;;23.30;52.10;;;;;;6167666;28;84008;-67
2021/08/27 12:29:22;;;;;;;14.70;8.15;;;23.30;52.20;;;;;;6170477;28;83388;-68
2021/08/27 12:32:23;;;;;;;15.35;7.55;;;23.40;52.20;;;;;;6160236;28;80421;-67
2021/08/27 12:35:23;;;;;;;18.10;7.07;;;23.40;52.10;;;;;;6160823;28;80401;-68
2021/08/27 12:38:24;;;;;;;12.40;7.30;;;23.40;52.10;;;;;;6153072;28;80320;-67
2021/08/27 12:41:24;;;;;;;11.65;6.80;;;23.40;52.00;;;;;;6168547;28;80639;-66
2021/08/27 12:44:25;;;;;;;11.13;6.10;;;23.40;52.10;;;;;;6165578;28;80300;-66
2021/08/27 12:47:25;;;;;;;12.07;5.70;;;23.30;52.10;;;;;;6166415;28;81323;-66
2021/08/27 12:50:26;;;;;;;11.35;5.30;;;23.30;52.20;;;;;;6158228;28;87252;-66
2021/08/27 12:53:27;;;;;;;9.73;5.82;;;23.40;52.30;;;;;;6162806;28;80592;-67
2021/08/27 12:56:27;;;;;;;9.63;5.95;;;23.30;52.70;;;;;;6169442;28;81620;-67
2021/08/27 12:59:28;;;;;;;16.55;6.05;;;23.30;53.10;;;;;;6174754;28;80730;-68
2021/08/27 13:02:28;;;;;;;7.25;5.13;;;23.30;53.30;;;;;;6147817;28;81192;-67
2021/08/27 13:05:29;;;;;;;9.23;5.50;;;23.40;53.00;;;;;;6204073;28;80356;-66
2021/08/27 13:08:29;;;;;;;7.95;5.20;;;23.40;52.90;;;;;;6191855;28;81664;-66
2021/08/27 13:11:30;;;;;;;9.02;5.65;;;23.40;53.30;;;;;;6162967;28;80700;-65
2021/08/27 13:14:30;;;;;;;7.40;5.40;;;23.30;53.60;;;;;;6162250;28;81422;-65
2021/08/27 13:17:31;;;;;;;7.60;4.63;;;23.40;53.60;;;;;;6160300;28;80881;-66
2021/08/27 13:20:31;;;;;;;8.93;5.60;;;23.40;53.70;;;;;;6158399;28;80631;-65
2021/08/27 13:23:32;;;;;;;11.52;4.80;;;23.30;54.10;;;;;;6159719;28;81375;-66
2021/08/27 13:26:32;;;;;;;7.47;5.00;;;23.40;53.90;;;;;;6156920;28;82168;-67
2021/08/27 13:29:33;;;;;;;10.75;4.93;;;23.40;53.90;;;;;;6175224;28;83132;-66
2021/08/27 13:32:33;;;;;;;8.82;5.40;;;23.40;53.90;;;;;;6163280;28;81518;-67
2021/08/27 13:35:34;;;;;;;7.43;4.57;;;23.40;54.10;;;;;;6163252;28;80581;-66
2021/08/27 13:38:34;;;;;;;7.85;4.60;;;23.40;54.20;;;;;;6161394;28;80525;-66
2021/08/27 13:41:35;;;;;;;7.85;4.50;;;23.40;54.10;;;;;;6155581;28;80714;-67
2021/08/27 13:44:35;;;;;;;7.47;4.65;;;23.40;54.20;;;;;;6165104;28;80871;-66
2021/08/27 13:47:36;;;;;;;8.82;4.90;;;23.40;54.30;;;;;;6174681;28;86877;-67
2021/08/27 13:50:36;;;;;;;5.55;4.07;;;23.40;54.50;;;;;;6173824;28;80706;-66
2021/08/27 13:53:37;;;;;;;7.07;4.57;;;23.50;54.60;;;;;;6174882;28;80463;-65
2021/08/27 13:56:37;;;;;;;8.25;4.63;;;23.40;54.60;;;;;;6152414;28;80904;-65
2021/08/27 13:59:38;;;;;;;8.30;4.32;;;23.40;54.60;;;;;;6174174;28;81036;-65
2021/08/27 14:02:38;;;;;;;9.85;5.03;;;23.40;54.90;;;;;;6176506;28;80350;-66
2021/08/27 14:05:39;;;;;;;6.50;4.53;;;23.50;54.80;;;;;;6172583;28;80928;-67
2021/08/27 14:08:40;;;;;;;7.57;4.13;;;23.40;54.60;;;;;;6154485;28;80474;-66
2021/08/27 14:11:40;;;;;;;7.65;3.72;;;23.50;55.00;;;;;;6173469;28;82316;-66
2021/08/27 14:14:40;;;;;;;6.75;4.15;;;23.40;55.00;;;;;;6178322;28;81896;-65
2021/08/27 14:17:41;;;;;;;7.13;4.47;;;23.40;54.70;;;;;;6164281;28;80754;-65
2021/08/27 14:20:45;;;;;;;6.28;4.00;;;23.40;54.50;;;;;;6178469;28;80906;-65
2021/08/27 14:23:45;;;;;;;8.77;3.92;;;23.40;54.60;;;;;;6164331;28;82793;-66
2021/08/27 14:26:46;;;;;;;6.28;4.03;;;23.40;54.50;;;;;;6160038;28;80634;-65
2021/08/27 14:29:46;;;;;;;7.63;4.10;;;23.40;54.80;;;;;;6195031;28;80427;-65
2021/08/27 14:32:47;;;;;;;5.95;4.05;;;23.40;54.90;;;;;;6165184;28;80842;-65
2021/08/27 14:35:49;;;;;;;6.13;3.35;;;23.40;54.70;;;;;;6160755;28;80272;-64
2021/08/27 14:38:50;;;;;;;5.68;3.65;;;23.40;54.50;;;;;;6162876;28;80779;-65
2021/08/27 14:41:50;;;;;;;5.63;3.70;;;23.40;54.80;;;;;;6161582;28;80938;-64
2021/08/27 14:44:51;;;;;;;5.32;3.72;;;23.40;54.70;;;;;;6164289;28;81448;-64
2021/08/27 14:47:51;;;;;;;6.07;3.83;;;23.40;54.50;;;;;;6166270;28;82393;-64
2021/08/27 14:50:52;;;;;;;5.05;3.42;;;23.40;54.60;;;;;;6170378;28;81881;-64
2021/08/27 14:53:52;;;;;;;6.28;3.80;;;23.40;54.40;;;;;;6163476;28;81671;-65
2021/08/27 14:56:54;;;;;;;5.10;3.67;;;23.40;54.20;;;;;;6161549;28;81040;-65
2021/08/27 14:59:54;;;;;;;8.88;2.95;;;23.40;54.10;;;;;;6161972;28;80675;-66
2021/08/27 15:02:57;;;;;;;5.82;3.00;;;23.40;54.30;;;;;;6163492;28;82813;-68
2021/08/27 15:05:58;;;;;;;6.63;3.80;;;23.40;54.50;;;;;;6171274;28;84991;-68
2021/08/27 15:08:58;;;;;;;6.07;3.13;;;23.40;54.40;;;;;;6169167;28;81007;-66
2021/08/27 15:11:59;;;;;;;5.18;3.25;;;23.40;54.40;;;;;;6163245;28;81229;-66
2021/08/27 15:14:59;;;;;;;6.88;3.72;;;23.40;54.30;;;;;;6170774;28;80888;-67
2021/08/27 15:18:00;;;;;;;4.70;3.00;;;23.40;54.30;;;;;;6177977;28;80421;-67
2021/08/27 15:21:01;;;;;;;5.10;3.20;;;23.30;54.50;;;;;;6168497;28;80420;-68
2021/08/27 15:24:01;;;;;;;3.35;2.80;;;23.30;54.20;;;;;;6162190;28;81572;-67
2021/08/27 15:27:01;;;;;;;4.55;2.65;;;23.30;54.60;;;;;;6156176;28;81950;-69
2021/08/27 15:30:04;;;;;;;4.75;3.03;;;23.30;54.80;;;;;;6160606;28;82020;-66
2021/08/27 15:33:04;;;;;;;7.35;2.83;;;23.40;54.70;;;;;;6154256;28;81666;-66
2021/08/27 15:36:05;;;;;;;5.93;3.00;;;23.30;55.70;;;;;;6161419;28;80580;-69